createdAt,value
2023-01-21T00:04:34.659Z,4.13
2023-01-21T00:09:56.405Z,4.82
2023-01-21T00:15:18.136Z,4.90
2023-01-21T00:20:39.989Z,5.45
2023-01-21T00:26:03.857Z,3.28
2023-01-21T00:31:26.337Z,3.38
2023-01-21T00:36:48.082Z,6.15
2023-01-21T00:42:11.432Z,3.70
2023-01-21T00:47:33.182Z,3.95
2023-01-21T00:52:55.275Z,7.03
2023-01-21T00:58:17.027Z,5.47
2023-01-21T01:03:39.897Z,4.63
2023-01-21T01:09:01.704Z,5.10
2023-01-21T01:14:23.982Z,4.18
2023-01-21T01:19:45.804Z,5.05
2023-01-21T01:25:07.690Z,5.43
2023-01-21T01:30:29.822Z,7.60
2023-01-21T01:35:52.123Z,5.13
2023-01-21T01:41:17.616Z,5.38
2023-01-21T01:46:39.392Z,5.50
2023-01-21T01:52:05.119Z,5.82
2023-01-21T02:03:13.246Z,5.18
2023-01-21T02:08:36.479Z,5.15
2023-01-21T02:14:00.142Z,7.70
2023-01-21T02:19:43.558Z,6.43
2023-01-21T02:25:41.648Z,4.68
2023-01-21T02:31:30.455Z,4.85
2023-01-21T02:37:05.348Z,5.50
2023-01-21T02:42:45.254Z,6.63
2023-01-21T02:48:26.311Z,4.95
2023-01-21T02:53:48.087Z,3.90
2023-01-21T02:59:10.687Z,5.30
2023-01-21T03:04:58.399Z,6.32
2023-01-21T03:10:32.068Z,6.07
2023-01-21T03:16:15.726Z,6.88
2023-01-21T03:21:38.469Z,7.28
2023-01-21T03:27:02.169Z,5.80
2023-01-21T03:32:25.967Z,5.75
2023-01-21T03:37:53.034Z,6.68
2023-01-21T03:43:14.853Z,5.93
2023-01-21T03:48:57.505Z,6.13
2023-01-21T03:54:19.506Z,6.03
2023-01-21T03:59:41.340Z,6.38
2023-01-21T04:05:03.642Z,4.80
2023-01-21T04:10:25.336Z,5.60
2023-01-21T04:15:47.715Z,7.68
2023-01-21T04:21:09.515Z,6.30
2023-01-21T04:26:31.301Z,7.53
2023-01-21T04:31:53.041Z,7.93
2023-01-21T04:37:14.936Z,7.20
2023-01-21T04:42:36.653Z,8.02
2023-01-21T04:47:58.410Z,7.40
2023-01-21T04:53:20.141Z,7.43
2023-01-21T04:58:41.853Z,7.57
2023-01-21T05:04:03.762Z,8.60
2023-01-21T05:09:25.649Z,5.97
2023-01-21T05:14:47.369Z,9.38
2023-01-21T05:20:09.881Z,6.45
2023-01-21T05:25:31.615Z,6.65
2023-01-21T05:30:53.320Z,7.57
2023-01-21T05:36:15.121Z,7.20
2023-01-21T05:41:36.925Z,7.25
2023-01-21T05:46:58.641Z,8.77
2023-01-21T05:52:20.407Z,8.93
2023-01-21T05:57:42.145Z,6.50
2023-01-21T06:03:04.390Z,5.63
2023-01-21T06:08:26.140Z,8.77
2023-01-21T06:13:47.904Z,7.13
2023-01-21T06:19:09.645Z,8.15
2023-01-21T06:24:31.577Z,7.55
2023-01-21T06:29:53.282Z,7.05
2023-01-21T06:35:15.432Z,7.45
2023-01-21T06:40:37.224Z,5.57
2023-01-21T06:45:59.051Z,6.05
2023-01-21T06:51:20.889Z,4.07
2023-01-21T06:56:43.841Z,3.55
2023-01-21T07:02:05.861Z,4.13
2023-01-21T07:07:27.700Z,3.15
2023-01-21T07:12:49.427Z,3.30
2023-01-21T07:18:11.131Z,5.15
2023-01-21T07:23:32.829Z,10.52
2023-01-21T07:28:54.541Z,3.90
2023-01-21T07:34:16.590Z,4.03
2023-01-21T07:39:38.307Z,5.20
2023-01-21T07:45:02.913Z,7.97
2023-01-21T07:50:24.721Z,9.25
2023-01-21T07:55:46.498Z,5.82
2023-01-21T08:01:10.094Z,9.20
2023-01-21T08:06:31.816Z,7.60
2023-01-21T08:11:53.587Z,6.63
2023-01-21T08:17:15.308Z,5.85
2023-01-21T08:22:37.808Z,12.68
2023-01-21T08:28:02.157Z,8.23
2023-01-21T08:33:23.817Z,9.32
2023-01-21T08:38:48.453Z,5.00
2023-01-21T08:44:10.624Z,8.40
2023-01-21T08:49:32.319Z,7.25
2023-01-21T08:54:54.289Z,4.90
2023-01-21T09:00:16.390Z,5.07
2023-01-21T09:05:38.045Z,5.65
2023-01-21T09:11:01.089Z,4.80
2023-01-21T09:16:23.418Z,6.10
2023-01-21T09:21:45.141Z,7.50
2023-01-21T09:27:07.782Z,5.40
2023-01-21T09:32:29.500Z,6.57
2023-01-21T09:37:51.203Z,11.48
2023-01-21T09:43:23.409Z,9.65
2023-01-21T09:48:48.741Z,7.25
2023-01-21T09:59:59.799Z,11.73
2023-01-21T10:05:24.183Z,6.70
2023-01-21T10:10:52.700Z,9.45
2023-01-21T10:16:42.356Z,13.15
2023-01-21T10:22:12.353Z,7.80
2023-01-21T10:27:38.114Z,5.18
2023-01-21T10:33:00.711Z,7.45
2023-01-21T10:38:34.217Z,7.43
2023-01-21T10:44:09.504Z,6.95
2023-01-21T10:49:52.496Z,6.93
2023-01-21T10:56:00.226Z,11.60
2023-01-21T11:06:59.320Z,11.02
2023-01-21T11:12:22.363Z,11.07
2023-01-21T11:17:50.160Z,13.15
2023-01-21T11:23:27.366Z,20.50
2023-01-21T11:28:49.189Z,13.93
2023-01-21T11:34:17.616Z,15.50
2023-01-21T11:39:48.263Z,12.25
2023-01-21T11:45:38.864Z,13.38
2023-01-21T11:51:07.431Z,19.13
2023-01-21T11:56:29.294Z,14.50
2023-01-21T12:02:04.857Z,16.15
2023-01-21T12:07:33.268Z,12.53
2023-01-21T12:13:10.226Z,16.42
2023-01-21T12:18:34.912Z,16.40
2023-01-21T12:24:14.875Z,15.97
2023-01-21T12:30:06.712Z,11.05
2023-01-21T12:35:39.694Z,10.55
2023-01-21T12:41:17.229Z,13.98
2023-01-21T12:46:44.889Z,8.23
2023-01-21T12:52:19.082Z,11.38
2023-01-21T12:57:58.702Z,6.95
2023-01-21T13:03:24.497Z,7.70
2023-01-21T13:09:27.889Z,15.52
2023-01-21T13:15:18.857Z,12.20
2023-01-21T13:20:53.049Z,14.38
2023-01-21T13:26:52.901Z,15.07
2023-01-21T13:32:23.746Z,12.05
2023-01-21T13:37:47.944Z,13.80
2023-01-21T13:43:12.542Z,11.55
2023-01-21T13:48:43.160Z,14.37
2023-01-21T13:54:27.459Z,14.70
2023-01-21T13:59:55.330Z,13.18
2023-01-21T14:05:19.814Z,12.70
2023-01-21T14:11:06.228Z,15.77
2023-01-21T14:16:34.314Z,11.45
2023-01-21T14:22:10.938Z,8.23
2023-01-21T14:27:38.363Z,11.68
2023-01-21T14:33:46.484Z,8.23
2023-01-21T14:39:19.985Z,6.30
2023-01-21T14:44:50.613Z,7.70
2023-01-21T14:50:44.804Z,8.27
2023-01-21T14:56:19.295Z,7.75
2023-01-21T15:01:48.157Z,8.98
2023-01-21T15:07:18.031Z,7.57
2023-01-21T15:12:46.217Z,10.07
2023-01-21T15:18:10.689Z,10.32
2023-01-21T15:23:32.353Z,8.57
2023-01-21T15:28:56.424Z,8.38
2023-01-21T15:34:21.846Z,7.03
2023-01-21T15:45:23.875Z,5.28
2023-01-21T15:50:57.408Z,5.40
2023-01-21T15:56:19.203Z,5.78
2023-01-21T16:01:41.518Z,9.02
2023-01-21T16:07:09.084Z,6.90
2023-01-21T16:12:57.401Z,12.10
2023-01-21T16:18:43.403Z,8.55
2023-01-21T16:24:10.332Z,7.85
2023-01-21T16:29:38.689Z,5.15
2023-01-21T16:35:01.182Z,6.97
2023-01-21T16:40:29.998Z,6.03
2023-01-21T16:46:01.330Z,6.68
2023-01-21T16:51:28.852Z,6.55
2023-01-21T16:57:20.335Z,5.55
2023-01-21T17:02:42.136Z,5.47
2023-01-21T17:08:11.370Z,7.15
2023-01-21T17:13:33.572Z,7.20
2023-01-21T17:18:57.268Z,5.70
2023-01-21T17:24:24.129Z,11.50
2023-01-21T17:29:46.069Z,16.23
2023-01-21T17:35:15.363Z,17.25
2023-01-21T17:40:58.873Z,27.42
2023-01-21T17:46:22.802Z,35.40
2023-01-21T17:51:45.373Z,28.25
2023-01-21T17:57:35.986Z,30.50
2023-01-21T18:02:58.427Z,30.40
2023-01-21T18:08:20.358Z,19.13
2023-01-21T18:13:42.168Z,27.80
2023-01-21T18:19:03.941Z,21.10
2023-01-21T18:24:26.299Z,22.40
2023-01-21T18:29:48.272Z,21.23
2023-01-21T18:35:11.240Z,21.52
2023-01-21T18:40:33.091Z,21.48
2023-01-21T18:45:54.981Z,18.02
2023-01-21T18:51:16.965Z,24.02
2023-01-21T18:56:38.849Z,17.48
2023-01-21T19:02:00.770Z,19.55
2023-01-21T19:07:23.938Z,23.42
2023-01-21T19:12:47.072Z,17.50
2023-01-21T19:18:13.844Z,15.05
2023-01-21T19:23:36.023Z,20.85
2023-01-21T19:28:58.124Z,14.00
2023-01-21T19:34:22.011Z,14.07
2023-01-21T19:39:44.174Z,11.82
2023-01-21T19:45:08.861Z,12.90
2023-01-21T19:50:31.111Z,17.43
2023-01-21T19:55:52.975Z,18.55
2023-01-21T20:01:14.816Z,15.70
2023-01-21T20:06:40.477Z,16.30
2023-01-21T20:12:04.347Z,16.52
2023-01-21T20:17:27.893Z,14.57
2023-01-21T20:22:50.024Z,17.45
2023-01-21T20:28:35.960Z,18.55
2023-01-21T20:33:57.888Z,13.47
2023-01-21T20:39:20.443Z,11.45
2023-01-21T20:44:42.149Z,14.10
2023-01-21T20:50:06.088Z,15.45
2023-01-21T20:55:29.450Z,10.88
2023-01-21T21:00:51.197Z,14.85
2023-01-21T21:06:25.374Z,15.68
2023-01-21T21:11:47.109Z,9.32
2023-01-21T21:17:14.588Z,15.43
2023-01-21T21:22:36.245Z,14.95
2023-01-21T21:27:58.515Z,8.38
2023-01-21T21:33:22.206Z,8.32
2023-01-21T21:38:46.389Z,15.02
2023-01-21T21:44:09.355Z,11.60
2023-01-21T21:49:31.238Z,11.50
2023-01-21T21:54:54.580Z,9.10
2023-01-21T22:00:16.920Z,9.80
2023-01-21T22:05:38.657Z,8.93
2023-01-21T22:11:02.227Z,10.00
2023-01-21T22:16:28.879Z,7.85
2023-01-21T22:21:50.621Z,7.00
2023-01-21T22:27:13.351Z,7.03
2023-01-21T22:32:35.046Z,7.22
2023-01-21T22:37:56.731Z,6.50
2023-01-21T22:43:21.079Z,6.15
2023-01-21T22:48:42.900Z,6.63
2023-01-21T22:54:05.031Z,7.00
2023-01-21T22:59:26.820Z,7.00
2023-01-21T23:04:48.570Z,7.47
2023-01-21T23:10:10.611Z,6.82
2023-01-21T23:15:32.378Z,8.27
2023-01-21T23:20:54.592Z,7.60
2023-01-21T23:26:19.419Z,9.25
2023-01-21T23:31:41.222Z,6.77
2023-01-21T23:37:03.027Z,9.38
2023-01-21T23:42:24.759Z,7.80
2023-01-21T23:47:47.758Z,8.23
2023-01-21T23:53:09.553Z,8.68
2023-01-21T23:58:31.378Z,9.13
